Time;durP1;ratioP1;P1;durP2;ratioP2;P2;SDS_P1;SDS_P2;PMS_P1;PMS_P2;Temp;Humidity;BMP_temperature;BMP_pressure;BME280_temperature;BME280_humidity;BME280_pressure;Samples;Min_cycle;Max_cycle;Signal;HPM_P1;HPM_P2
2023/07/26 00:00:17;;;;;;;13.38;12.25;;;;;;;17.32;59.90;98920.52;1727216;83;28068;-70
2023/07/26 00:02:46;;;;;;;12.78;11.65;;;;;;;17.30;60.36;98913.30;1727174;83;25423;-69
2023/07/26 00:05:14;;;;;;;12.23;11.03;;;;;;;17.27;60.65;98919.53;1727194;83;25438;-70
2023/07/26 00:07:41;;;;;;;12.15;10.60;;;;;;;17.24;60.61;98918.34;1727166;83;26458;-70
2023/07/26 00:10:10;;;;;;;10.75;9.68;;;;;;;17.23;60.72;98924.19;1727196;83;25537;-70
2023/07/26 00:12:38;;;;;;;12.25;11.00;;;;;;;17.20;60.73;98917.56;1727329;83;27287;-70
2023/07/26 00:15:27;;;;;;;12.43;11.12;;;;;;;17.18;61.02;98919.31;1727090;83;25557;-69
2023/07/26 00:17:55;;;;;;;11.70;10.53;;;;;;;17.17;61.09;98922.43;1667975;86;25528;-70
2023/07/26 00:20:22;;;;;;;12.85;11.28;;;;;;;17.15;61.34;98922.04;1667909;86;25635;-69
2023/07/26 00:22:49;;;;;;;14.15;12.75;;;;;;;17.13;61.37;98921.66;1667935;86;25528;-69
2023/07/26 00:25:17;;;;;;;13.22;10.45;;;;;;;17.12;61.59;98929.64;1667979;86;27972;-69
2023/07/26 00:27:44;;;;;;;12.93;11.73;;;;;;;17.09;61.64;98924.34;1645177;86;25371;-69
2023/07/26 00:30:19;;;;;;;15.48;13.22;;;;;;;17.09;61.70;98930.41;1706732;82;25376;-69
2023/07/26 00:32:43;;;;;;;17.52;12.30;;;;;;;17.05;62.04;98935.86;1735583;82;25561;-69
2023/07/26 00:35:21;;;;;;;11.53;10.10;;;;;;;17.04;62.21;98937.61;1736780;82;25305;-69
2023/07/26 00:37:51;;;;;;;14.40;11.68;;;;;;;17.01;62.39;98939.17;1736816;82;27757;-67
2023/07/26 00:40:19;;;;;;;13.28;12.07;;;;;;;16.97;62.25;98941.09;1736741;81;25517;-67
2023/07/26 00:42:46;;;;;;;31.07;13.00;;;;;;;16.95;62.65;98950.26;1736786;82;25392;-68
2023/07/26 00:45:13;;;;;;;15.00;13.43;;;;;;;16.91;62.61;98957.08;1736703;81;25617;-69
2023/07/26 00:47:43;;;;;;;12.70;11.55;;;;;;;16.89;62.66;98962.70;1707332;82;25518;-69
2023/07/26 00:50:10;;;;;;;15.30;14.00;;;;;;;16.87;62.80;98967.19;1736888;82;27245;-67
2023/07/26 00:52:39;;;;;;;15.05;13.45;;;;;;;16.85;62.98;98964.06;1736656;82;25466;-68
2023/07/26 00:55:09;;;;;;;16.57;14.38;;;;;;;16.84;63.35;98975.34;1736865;82;25324;-69
2023/07/26 00:57:38;;;;;;;16.55;14.23;;;;;;;16.83;63.63;98969.09;1736768;81;25910;-69
2023/07/26 01:00:07;;;;;;;21.68;17.82;;;;;;;16.76;63.84;98960.88;1707965;82;25547;-70
2023/07/26 01:02:35;;;;;;;21.45;17.10;;;;;;;16.83;63.85;98968.33;1736749;82;27872;-69
2023/07/26 01:05:07;;;;;;;16.70;15.10;;;;;;;16.83;63.83;98971.83;1736964;82;25414;-69
2023/07/26 01:08:17;;;;;;;17.32;15.78;;;;;;;16.82;64.06;98971.62;1732812;82;25542;-69
2023/07/26 01:10:59;;;;;;;21.75;18.37;;;;;;;16.81;64.13;98970.84;1736719;82;25634;-69
2023/07/26 01:13:47;;;;;;;15.53;14.07;;;;;;;16.83;64.49;98983.34;1736797;82;25311;-67
2023/07/26 01:16:17;;;;;;;14.90;13.78;;;;;;;16.81;64.77;98986.45;1736791;81;27197;-67
2023/07/26 01:18:44;;;;;;;18.60;16.93;;;;;;;16.79;64.93;98988.79;1736891;81;25368;-67
2023/07/26 01:21:11;;;;;;;26.57;24.63;;;;;;;16.78;65.07;98987.98;1736766;81;25507;-66
2023/07/26 01:23:39;;;;;;;20.65;18.70;;;;;;;16.78;65.25;98988.58;1736673;81;25784;-67
2023/07/26 01:26:06;;;;;;;51.75;48.48;;;;;;;16.80;65.43;98988.97;1736745;82;25474;-67
2023/07/26 01:28:33;;;;;;;21.90;20.12;;;;;;;16.82;65.48;98986.64;1736759;81;27241;-67
2023/07/26 01:31:05;;;;;;;33.78;31.27;;;;;;;16.83;65.48;98989.58;1736645;82;25490;-67
2023/07/26 01:33:35;;;;;;;33.80;31.33;;;;;;;16.85;65.74;98984.54;1736707;82;25456;-67
2023/07/26 01:36:05;;;;;;;28.23;26.30;;;;;;;16.88;65.68;98985.73;1736722;82;26213;-69
2023/07/26 01:38:34;;;;;;;33.20;31.00;;;;;;;16.91;65.73;98990.44;1736733;81;25308;-68
2023/07/26 01:41:03;;;;;;;56.90;53.48;;;;;;;16.92;65.68;98985.94;1736922;82;27202;-69
2023/07/26 01:43:32;;;;;;;66.60;62.58;;;;;;;16.97;66.09;98985.59;1737136;81;25656;-68
2023/07/26 01:45:59;;;;;;;49.30;46.33;;;;;;;17.01;66.02;98992.44;1708050;82;25541;-68
2023/07/26 01:48:26;;;;;;;39.75;37.15;;;;;;;17.03;67.02;98999.66;1737000;81;25629;-67
2023/07/26 01:50:54;;;;;;;37.83;35.45;;;;;;;17.05;67.82;99011.56;1737079;82;25532;-67
2023/07/26 01:53:21;;;;;;;57.27;53.78;;;;;;;17.03;68.21;99007.85;1737017;82;27215;-67
2023/07/26 01:55:49;;;;;;;34.55;32.08;;;;;;;17.03;67.97;99012.54;1736794;82;25378;-67
2023/07/26 01:58:17;;;;;;;18.07;16.30;;;;;;;17.04;69.54;99011.36;1736903;82;25557;-67
2023/07/26 02:00:44;;;;;;;28.50;26.75;;;;;;;17.03;69.89;99007.85;1736873;81;25624;-67
2023/07/26 02:03:12;;;;;;;70.25;65.70;;;;;;;17.02;69.42;98989.89;1736939;82;25398;-67
2023/07/26 02:05:46;;;;;;;81.20;76.30;;;;;;;17.01;69.60;98971.95;1707810;82;27819;-68
2023/07/26 02:08:18;;;;;;;74.90;70.40;;;;;;;17.00;69.91;98975.84;1707164;82;25762;-67
2023/07/26 02:10:45;;;;;;;36.50;34.15;;;;;;;16.99;70.31;98988.72;1707672;82;25498;-68
2023/07/26 02:13:12;;;;;;;10.93;9.93;;;;;;;17.01;70.35;98997.09;1736874;81;25618;-67
2023/07/26 02:15:40;;;;;;;9.78;8.98;;;;;;;16.98;70.52;98995.93;1736930;81;25331;-68
2023/07/26 02:18:08;;;;;;;11.48;10.43;;;;;;;16.97;70.50;99006.64;1736813;81;27299;-68
2023/07/26 02:20:36;;;;;;;10.82;9.68;;;;;;;16.96;70.56;99008.60;1736756;81;25509;-68
2023/07/26 02:23:03;;;;;;;11.57;10.50;;;;;;;16.94;70.31;99012.87;1736985;81;25378;-68
2023/07/26 02:25:31;;;;;;;11.30;10.38;;;;;;;16.94;70.41;99017.77;1736871;82;25648;-67
2023/07/26 02:27:59;;;;;;;11.55;10.55;;;;;;;16.93;70.77;99018.14;1736896;82;25489;-68
2023/07/26 02:30:27;;;;;;;10.23;9.35;;;;;;;16.92;70.76;99015.20;1736872;82;27272;-67
2023/07/26 02:32:55;;;;;;;11.28;10.35;;;;;;;16.90;70.85;99016.95;1707235;82;25611;-68
2023/07/26 02:35:23;;;;;;;15.40;14.13;;;;;;;16.88;70.97;99020.64;1737103;82;25421;-68
2023/07/26 02:37:51;;;;;;;12.10;11.00;;;;;;;16.86;71.24;99020.25;1736828;82;25685;-68
2023/07/26 02:40:18;;;;;;;14.90;13.75;;;;;;;16.86;71.36;99023.58;1736860;82;25528;-68
2023/07/26 02:42:45;;;;;;;12.70;11.70;;;;;;;16.87;72.07;99022.39;1707495;82;28080;-68
2023/07/26 02:45:13;;;;;;;15.13;14.03;;;;;;;16.86;72.27;99020.84;1736773;82;25465;-68
2023/07/26 02:47:41;;;;;;;12.78;11.65;;;;;;;16.86;72.68;99013.42;1736861;82;25390;-68
2023/07/26 02:50:09;;;;;;;14.35;13.25;;;;;;;16.85;72.46;99013.22;1736839;82;26286;-68
2023/07/26 02:52:36;;;;;;;21.33;19.90;;;;;;;16.85;72.89;99014.58;1736832;82;25486;-69
2023/07/26 02:55:07;;;;;;;43.52;40.67;;;;;;;16.85;73.23;99017.31;1736955;81;27323;-68
2023/07/26 02:57:34;;;;;;;32.48;30.25;;;;;;;16.86;73.82;99017.52;1736830;81;25696;-67
2023/07/26 03:00:03;;;;;;;28.10;25.97;;;;;;;16.87;73.56;99015.56;1707524;82;25570;-67
2023/07/26 03:02:31;;;;;;;15.88;14.87;;;;;;;16.87;74.05;99014.97;1736944;82;32461;-67
2023/07/26 03:04:59;;;;;;;48.15;45.33;;;;;;;16.87;73.69;99020.44;1736904;81;25518;-67
2023/07/26 03:07:27;;;;;;;25.40;23.50;;;;;;;16.87;73.46;99027.86;1736780;82;27280;-68
2023/07/26 03:09:55;;;;;;;26.62;24.45;;;;;;;16.87;73.63;99034.68;1736737;82;25500;-68
2023/07/26 03:12:23;;;;;;;59.40;55.65;;;;;;;16.88;73.84;99035.67;1736805;82;25363;-68
2023/07/26 03:14:51;;;;;;;69.05;65.00;;;;;;;16.89;74.32;99037.81;1736767;81;25680;-68
2023/07/26 03:17:19;;;;;;;72.27;67.87;;;;;;;16.88;74.56;99034.89;1734424;81;25541;-68
2023/07/26 03:19:46;;;;;;;49.55;46.35;;;;;;;16.87;74.61;99039.55;1731356;82;27248;-68
2023/07/26 03:22:14;;;;;;;51.25;48.13;;;;;;;16.87;74.54;99043.65;1731249;82;25620;-68
2023/07/26 03:24:41;;;;;;;26.25;24.37;;;;;;;16.87;74.16;99043.65;1731318;82;25541;-68
2023/07/26 03:27:08;;;;;;;17.00;15.70;;;;;;;16.87;74.25;99046.97;1731269;82;26307;-68
2023/07/26 03:29:36;;;;;;;14.20;12.95;;;;;;;16.86;74.15;99045.42;1731380;82;25544;-68
2023/07/26 03:32:06;;;;;;;20.70;19.00;;;;;;;16.85;74.47;99047.94;1731266;82;27277;-68
2023/07/26 03:34:34;;;;;;;17.00;15.30;;;;;;;16.84;74.58;99039.51;1702501;82;25817;-68
2023/07/26 03:37:04;;;;;;;24.52;23.02;;;;;;;16.85;74.47;99042.48;1731491;82;25573;-68
2023/07/26 03:39:31;;;;;;;60.35;56.53;;;;;;;16.93;74.69;99068.08;1731411;82;25704;-68
2023/07/26 03:41:58;;;;;;;61.85;58.15;;;;;;;16.87;74.75;99059.26;1731360;82;25497;-68
2023/07/26 03:44:26;;;;;;;56.90;53.40;;;;;;;16.89;75.07;99048.73;1731280;82;27252;-68
2023/07/26 03:46:53;;;;;;;23.90;22.15;;;;;;;16.90;75.44;99053.81;1731217;82;25322;-68
2023/07/26 03:49:20;;;;;;;39.55;37.20;;;;;;;16.92;75.37;99052.07;1706505;82;25352;-68
2023/07/26 03:51:48;;;;;;;75.97;71.35;;;;;;;16.94;75.27;99055.20;1731569;82;25683;-67
2023/07/26 03:54:15;;;;;;;40.63;38.08;;;;;;;16.96;75.66;99051.52;1707092;82;25148;-67
2023/07/26 03:56:42;;;;;;;15.18;13.98;;;;;;;17.01;75.77;99064.02;1731754;82;27274;-68
2023/07/26 03:59:10;;;;;;;29.70;27.62;;;;;;;17.04;75.82;99068.12;1731342;82;25491;-68
2023/07/26 04:01:38;;;;;;;40.00;37.55;;;;;;;17.07;75.68;99069.33;1731284;82;25367;-68
2023/07/26 04:04:05;;;;;;;43.73;40.92;;;;;;;17.09;75.51;99071.86;1731242;82;25760;-68
2023/07/26 04:06:33;;;;;;;42.13;39.63;;;;;;;17.13;75.56;99071.91;1731284;82;25315;-68
2023/07/26 04:09:00;;;;;;;63.65;59.42;;;;;;;17.13;75.56;99067.22;1731292;82;27267;-68
2023/07/26 04:11:28;;;;;;;12.60;11.63;;;;;;;17.15;75.55;99069.57;1731242;82;25314;-68
2023/07/26 04:13:56;;;;;;;22.32;20.77;;;;;;;17.16;75.76;99067.02;1730624;82;25423;-68
2023/07/26 04:16:24;;;;;;;18.32;17.02;;;;;;;17.17;75.28;99072.70;1731353;82;25622;-68
2023/07/26 04:18:52;;;;;;;15.08;13.98;;;;;;;17.16;75.20;99076.58;1736571;81;25348;-56
2023/07/26 04:21:20;;;;;;;14.45;13.40;;;;;;;17.15;75.14;99079.91;1736912;82;27192;-52
2023/07/26 04:23:47;;;;;;;12.37;11.28;;;;;;;17.16;75.14;99082.05;1736706;82;25548;-54
2023/07/26 04:26:14;;;;;;;14.98;13.60;;;;;;;17.15;75.08;99084.59;1736750;82;25316;-52
2023/07/26 04:28:42;;;;;;;12.98;11.65;;;;;;;17.15;75.11;99078.54;1736766;82;27907;-54
2023/07/26 04:31:10;;;;;;;17.62;16.15;;;;;;;17.15;75.04;99079.13;1736769;81;25551;-52
2023/07/26 04:33:39;;;;;;;18.15;16.77;;;;;;;17.15;75.06;99077.77;1736809;82;29416;-57
2023/07/26 04:36:09;;;;;;;19.62;18.17;;;;;;;17.16;75.58;99085.58;1736768;82;25674;-56
2023/07/26 04:38:36;;;;;;;;;;;;;;;17.21;75.84;99091.24;1739377;81;25363;-52
2023/07/26 04:41:04;;;;;;;69.05;64.92;;;;;;;17.24;76.08;99093.22;1736711;82;25755;-54
2023/07/26 04:43:32;;;;;;;74.80;70.25;;;;;;;17.28;75.95;99104.97;1736916;82;25484;-55
2023/07/26 04:46:00;;;;;;;80.25;75.55;;;;;;;17.33;75.73;99109.26;1736799;81;27940;-56
2023/07/26 04:48:27;;;;;;;75.22;70.75;;;;;;;17.35;75.52;99104.99;1736611;82;27143;-52
2023/07/26 04:50:55;;;;;;;78.12;73.57;;;;;;;17.39;75.56;99102.27;1736763;82;25416;-53
2023/07/26 04:53:22;;;;;;;83.67;78.30;;;;;;;17.44;75.54;99099.77;1736699;81;25671;-55
2023/07/26 04:55:52;;;;;;;83.52;78.60;;;;;;;17.48;75.32;99108.75;1736750;81;25314;-53
2023/07/26 04:58:20;;;;;;;85.03;80.03;;;;;;;17.51;75.07;99109.35;1736755;82;27210;-53
2023/07/26 05:00:47;;;;;;;61.90;57.67;;;;;;;17.56;75.03;99115.81;1736683;82;25321;-58
2023/07/26 05:03:15;;;;;;;75.42;71.10;;;;;;;17.61;74.72;99111.34;1736709;82;25383;-52
2023/07/26 05:05:51;;;;;;;82.33;77.58;;;;;;;17.63;74.29;99113.10;1707224;82;25530;-56
2023/07/26 05:08:20;;;;;;;82.92;78.12;;;;;;;17.69;74.08;99114.31;1736806;82;25520;-53
2023/07/26 05:10:51;;;;;;;82.95;78.00;;;;;;;17.72;73.50;99110.80;1736702;82;27268;-52
2023/07/26 05:13:19;;;;;;;79.53;74.82;;;;;;;17.77;73.24;99111.59;1736654;82;25552;-54
2023/07/26 05:15:48;;;;;;;79.50;74.97;;;;;;;17.79;72.59;99112.75;1736434;82;25781;-54
2023/07/26 05:18:15;;;;;;;79.65;75.05;;;;;;;17.82;72.16;99117.45;1733527;81;25730;-52
2023/07/26 05:20:43;;;;;;;76.45;71.80;;;;;;;17.87;72.27;99118.48;1731242;82;25528;-54
2023/07/26 05:23:10;;;;;;;80.17;75.65;;;;;;;17.92;72.07;99114.00;1731310;82;26529;-54
2023/07/26 05:25:40;;;;;;;80.62;76.02;;;;;;;18.00;71.72;99116.77;1731165;82;25534;-53
2023/07/26 05:28:08;;;;;;;79.45;74.92;;;;;;;18.08;71.47;99132.01;1731227;82;25516;-53
2023/07/26 05:30:39;;;;;;;80.75;76.15;;;;;;;18.17;70.93;99133.03;1731160;82;25617;-54
2023/07/26 05:33:08;;;;;;;80.87;76.20;;;;;;;18.26;70.86;99135.56;1731133;82;25387;-53
2023/07/26 05:35:35;;;;;;;80.60;75.78;;;;;;;18.38;70.28;99141.84;1731333;82;27950;-54
2023/07/26 05:38:03;;;;;;;78.80;74.30;;;;;;;18.51;70.12;99144.97;1731185;82;25395;-52
2023/07/26 05:40:31;;;;;;;82.40;77.25;;;;;;;18.65;69.24;99131.30;1731264;82;25346;-56
2023/07/26 05:42:58;;;;;;;79.87;75.17;;;;;;;18.81;69.06;99137.16;1731303;82;25617;-55
2023/07/26 05:45:25;;;;;;;81.80;76.97;;;;;;;18.96;68.28;99135.20;1731291;82;25311;-55
2023/07/26 05:47:53;;;;;;;77.58;73.12;;;;;;;19.13;67.96;99136.94;1731207;82;27195;-54
2023/07/26 05:50:21;;;;;;;79.67;75.12;;;;;;;19.27;67.35;99139.64;1731234;82;25488;-54
2023/07/26 05:52:49;;;;;;;36.93;34.65;;;;;;;19.44;67.42;99148.98;1731233;82;25465;-54
2023/07/26 05:55:16;;;;;;;77.40;73.10;;;;;;;19.62;66.26;99155.80;1731155;82;25628;-56
2023/07/26 05:57:44;;;;;;;77.27;72.90;;;;;;;19.80;65.28;99159.08;1731263;82;25558;-53
2023/07/26 06:00:14;;;;;;;78.90;74.40;;;;;;;19.95;64.31;99161.94;1706054;82;27740;-56
2023/07/26 06:02:42;;;;;;;81.90;76.80;;;;;;;20.04;63.84;99177.97;1706079;82;25428;-54
2023/07/26 06:05:10;;;;;;;79.58;74.90;;;;;;;20.11;63.16;99186.96;1731234;82;25319;-54
2023/07/26 06:07:38;;;;;;;78.12;73.52;;;;;;;20.24;62.85;99186.49;1731200;82;26231;-54
2023/07/26 06:10:07;;;;;;;83.25;78.35;;;;;;;20.32;62.31;99183.30;1731234;82;25301;-53
2023/07/26 06:12:35;;;;;;;79.77;75.20;;;;;;;20.39;61.92;99183.84;1706407;82;29626;-53
2023/07/26 06:15:03;;;;;;;78.35;73.75;;;;;;;20.51;61.49;99183.97;1731095;82;25558;-53
2023/07/26 06:17:31;;;;;;;77.17;72.57;;;;;;;20.64;61.35;99179.59;1731928;81;25383;-54
2023/07/26 06:19:59;;;;;;;76.67;72.50;;;;;;;20.80;60.66;99179.66;1736616;82;25911;-57
2023/07/26 06:22:29;;;;;;;77.87;73.57;;;;;;;20.96;60.15;99178.55;1736749;82;25521;-55
2023/07/26 06:24:56;;;;;;;76.90;72.50;;;;;;;21.14;59.86;99183.09;1736665;82;29392;-57
2023/07/26 06:27:29;;;;;;;77.42;73.10;;;;;;;21.35;59.46;99178.77;1736710;81;25352;-54
2023/07/26 06:29:57;;;;;;;76.35;71.97;;;;;;;21.52;58.81;99189.98;1736913;82;25540;-54
2023/07/26 06:32:25;;;;;;;76.53;72.27;;;;;;;21.66;57.98;99187.67;1737051;82;25634;-57
2023/07/26 06:34:52;;;;;;;40.30;38.13;;;;;;;21.77;57.82;99195.98;1736843;81;25477;-54
2023/07/26 06:37:20;;;;;;;12.37;11.43;;;;;;;21.93;57.87;99195.98;1736855;82;27241;-54
2023/07/26 06:39:47;;;;;;;9.38;8.70;;;;;;;22.09;57.48;99187.92;1736779;82;25318;-55
2023/07/26 06:42:15;;;;;;;12.70;11.88;;;;;;;22.22;57.05;99182.64;1736868;82;25338;-53
2023/07/26 06:44:42;;;;;;;35.03;32.48;;;;;;;22.34;56.37;99180.72;1736790;82;25641;-59
2023/07/26 06:47:10;;;;;;;74.32;70.10;;;;;;;22.42;55.87;99185.52;1736872;82;25464;-56
2023/07/26 06:49:37;;;;;;;77.08;71.95;;;;;;;22.48;55.65;99181.70;1707390;82;28176;-55
2023/07/26 06:52:06;;;;;;;77.12;72.58;;;;;;;22.56;55.05;99181.78;1736808;82;25617;-56
2023/07/26 06:54:34;;;;;;;75.10;70.90;;;;;;;22.61;54.68;99192.91;1736983;82;25564;-57
2023/07/26 06:57:01;;;;;;;70.37;66.60;;;;;;;22.69;54.15;99196.52;1707066;82;25616;-57
2023/07/26 06:59:28;;;;;;;27.30;25.65;;;;;;;22.73;53.76;99197.83;1736897;81;25308;-58
2023/07/26 07:01:56;;;;;;;27.93;25.97;;;;;;;22.73;53.49;99202.77;1736889;81;27898;-58
2023/07/26 07:04:23;;;;;;;42.80;40.38;;;;;;;22.77;53.42;99203.31;1736739;81;25367;-54
2023/07/26 07:06:51;;;;;;;24.00;22.42;;;;;;;22.86;53.68;99210.44;1736865;82;25500;-54
2023/07/26 07:09:18;;;;;;;60.43;57.10;;;;;;;22.97;52.84;99209.67;1736806;82;25750;-54
2023/07/26 07:11:45;;;;;;;75.10;70.80;;;;;;;23.04;53.10;99204.64;1736889;81;25340;-56
2023/07/26 07:14:13;;;;;;;74.50;70.32;;;;;;;23.17;52.63;99203.45;1736815;82;27336;-55
2023/07/26 07:16:41;;;;;;;78.07;73.60;;;;;;;23.26;52.14;99200.33;1736907;82;25383;-54
2023/07/26 07:19:09;;;;;;;72.65;68.65;;;;;;;23.30;51.56;99199.64;1735290;81;25807;-52
2023/07/26 07:21:36;;;;;;;73.05;68.97;;;;;;;23.39;51.27;99203.23;1731252;82;25673;-52
2023/07/26 07:24:06;;;;;;;72.87;68.85;;;;;;;23.48;51.34;99197.17;1706192;82;25424;-55
2023/07/26 07:26:33;;;;;;;74.97;70.52;;;;;;;23.57;51.15;99197.99;1731458;82;27720;-54
2023/07/26 07:29:01;;;;;;;72.27;68.47;;;;;;;23.66;50.63;99196.81;1731255;82;25693;-54
2023/07/26 07:31:28;;;;;;;72.67;68.70;;;;;;;23.73;50.40;99192.52;1731323;82;25337;-52
2023/07/26 07:33:55;;;;;;;73.75;69.42;;;;;;;23.80;50.10;99197.12;1706180;82;25657;-53
2023/07/26 07:36:23;;;;;;;74.30;70.05;;;;;;;23.91;49.96;99205.23;1706102;82;25545;-53
2023/07/26 07:38:50;;;;;;;73.87;69.85;;;;;;;23.98;49.77;99196.19;1731370;82;27296;-55
2023/07/26 07:41:18;;;;;;;25.35;23.83;;;;;;;24.22;49.88;99190.55;1731228;82;27202;-53
2023/07/26 07:43:45;;;;;;;75.08;71.07;;;;;;;24.48;49.72;99173.56;1731306;82;25563;-54
2023/07/26 07:46:13;;;;;;;75.62;71.55;;;;;;;24.82;49.44;99169.62;1731355;82;25829;-54
2023/07/26 07:48:42;;;;;;;74.62;70.52;;;;;;;25.12;49.02;99162.16;1731428;82;25513;-52
2023/07/26 07:51:09;;;;;;;;;;;;;;;25.43;48.46;99159.74;1733910;82;27861;-54
2023/07/26 07:53:37;;;;;;;72.25;67.72;;;;;;;25.58;47.35;99172.59;1731211;82;25693;-55
2023/07/26 07:56:04;;;;;;;73.62;69.25;;;;;;;25.50;46.65;99170.61;1731258;82;25380;-52
2023/07/26 07:58:32;;;;;;;6.28;2.00;;;;;;;25.38;46.33;99177.50;1731235;82;25742;-53
2023/07/26 08:01:00;;;;;;;9.50;2.17;;;;;;;25.25;46.08;99171.88;1731338;82;25492;-53
2023/07/26 08:03:29;;;;;;;1.70;1.40;;;;;;;25.08;46.01;99177.47;1731289;82;27169;-55
2023/07/26 08:05:57;;;;;;;;;;;;;;;24.91;45.52;99177.30;1733780;82;25494;-56
2023/07/26 08:08:24;;;;;;;9.00;2.50;;;;;;;24.72;45.40;99175.61;1731298;82;25379;-53
2023/07/26 08:10:52;;;;;;;13.32;4.22;;;;;;;24.57;45.68;99175.16;1731215;82;25610;-55
2023/07/26 08:13:20;;;;;;;4.80;4.05;;;;;;;24.48;45.99;99171.41;1731319;82;25490;-55
2023/07/26 08:15:48;;;;;;;2.77;2.58;;;;;;;24.43;46.08;99176.84;1731265;82;27266;-56
2023/07/26 08:18:16;;;;;;;12.25;6.70;;;;;;;24.34;45.76;99178.82;1731180;82;25553;-55
2023/07/26 08:20:43;;;;;;;17.92;16.87;;;;;;;24.27;45.71;99185.13;1731152;81;25382;-55
2023/07/26 08:23:11;;;;;;;15.40;14.53;;;;;;;24.18;46.04;99187.10;1731206;82;25629;-52
2023/07/26 08:25:39;;;;;;;39.90;37.38;;;;;;;24.18;46.56;99177.44;1731269;82;25538;-54
2023/07/26 08:28:07;;;;;;;61.50;58.08;;;;;;;24.24;46.11;99177.85;1731432;82;27333;-53
2023/07/26 08:30:36;;;;;;;56.92;53.80;;;;;;;24.27;46.47;99183.75;1731154;82;25624;-52
2023/07/26 08:33:04;;;;;;;27.70;26.02;;;;;;;24.42;46.46;99180.22;1731409;82;29725;-54
2023/07/26 08:35:33;;;;;;;5.80;5.12;;;;;;;24.57;46.48;99183.45;1731302;82;25553;-52
2023/07/26 08:38:01;;;;;;;74.10;70.12;;;;;;;24.66;46.34;99175.94;1731420;82;25537;-53
2023/07/26 08:40:29;;;;;;;72.12;67.92;;;;;;;24.82;46.05;99172.38;1731402;82;27111;-53
2023/07/26 08:43:01;;;;;;;72.35;68.47;;;;;;;24.94;45.53;99178.61;1731148;82;25323;-53
2023/07/26 08:45:30;;;;;;;72.03;68.15;;;;;;;25.00;44.67;99184.39;1731117;82;25325;-53
2023/07/26 08:48:00;;;;;;;72.80;68.57;;;;;;;24.95;44.65;99193.21;1731345;82;25618;-53
2023/07/26 08:50:29;;;;;;;72.87;68.97;;;;;;;25.00;44.72;99193.30;1706315;82;25510;-56
2023/07/26 08:52:57;;;;;;;72.05;68.10;;;;;;;25.10;44.31;99192.25;1731245;82;27842;-54
2023/07/26 08:55:24;;;;;;;58.23;54.85;;;;;;;25.14;43.79;99196.45;1731112;82;25660;-54
2023/07/26 08:57:52;;;;;;;72.45;68.47;;;;;;;25.19;43.69;99193.00;1706406;82;25319;-53
2023/07/26 09:00:21;;;;;;;54.53;51.35;;;;;;;25.26;43.41;99194.99;1731214;82;25683;-54
2023/07/26 09:02:52;;;;;;;40.45;38.10;;;;;;;25.29;43.14;99188.59;1731423;82;25373;-54
2023/07/26 09:05:19;;;;;;;71.05;67.20;;;;;;;25.35;42.96;99192.98;1731279;82;27792;-54
2023/07/26 09:07:51;;;;;;;71.65;67.75;;;;;;;25.38;43.00;99190.73;1731230;82;25161;-54
2023/07/26 09:10:19;;;;;;;71.50;67.60;;;;;;;25.40;43.03;99189.67;1730855;82;25402;-55
2023/07/26 09:12:46;;;;;;;74.05;69.58;;;;;;;25.42;42.83;99187.86;1704707;82;25570;-57
2023/07/26 09:15:14;;;;;;;73.52;69.15;;;;;;;25.43;42.87;99191.58;1731243;82;25482;-55
2023/07/26 09:17:43;;;;;;;73.02;68.75;;;;;;;25.39;42.85;99197.03;1731157;82;29434;-53
2023/07/26 09:20:25;;;;;;;69.53;65.80;;;;;;;25.30;42.85;99202.61;1731069;81;25628;-58
2023/07/26 09:23:06;;;;;;;71.97;68.15;;;;;;;25.14;42.84;99197.84;1731300;82;25478;-58
2023/07/26 09:25:42;;;;;;;71.07;67.17;;;;;;;24.93;42.88;99197.79;1731328;82;25737;-55
2023/07/26 09:28:14;;;;;;;73.17;68.33;;;;;;;24.71;43.09;99192.63;1731293;82;25336;-56
2023/07/26 09:30:50;;;;;;;75.97;70.72;;;;;;;24.50;43.08;99199.39;1731279;82;27223;-56
2023/07/26 09:33:16;;;;;;;74.72;70.10;;;;;;;24.29;43.34;99201.44;1704485;82;25333;-54
2023/07/26 09:35:52;;;;;;;73.85;69.72;;;;;;;24.07;43.47;99196.98;1731369;82;25533;-57
2023/07/26 09:38:26;;;;;;;73.80;69.82;;;;;;;23.85;43.48;99191.94;1731272;82;25620;-55
2023/07/26 09:40:54;;;;;;;79.77;74.35;;;;;;;23.61;43.58;99187.04;1731303;82;25382;-58
2023/07/26 09:43:31;;;;;;;73.60;69.27;;;;;;;23.43;44.02;99197.67;1731249;82;27199;-61
2023/07/26 09:46:05;;;;;;;97.42;90.47;;;;;;;23.29;43.85;99200.06;1731483;82;25453;-55
2023/07/26 09:48:32;;;;;;;74.97;70.75;;;;;;;23.12;43.63;99193.67;1731317;82;25556;-57
2023/07/26 09:51:05;;;;;;;76.47;72.10;;;;;;;22.99;43.80;99198.23;1731211;82;25770;-56
2023/07/26 09:53:36;;;;;;;76.82;72.40;;;;;;;22.87;43.75;99205.12;1731288;82;25391;-54
2023/07/26 09:56:05;;;;;;;94.20;87.97;;;;;;;22.78;43.82;99200.72;1731243;82;27211;-55
2023/07/26 09:58:35;;;;;;;77.62;72.82;;;;;;;22.68;44.04;99207.95;1731382;82;25717;-56
2023/07/26 10:01:04;;;;;;;80.85;73.15;;;;;;;22.60;44.18;99216.17;1706160;82;25408;-56
2023/07/26 10:03:35;;;;;;;76.12;71.05;;;;;;;22.49;44.34;99213.56;1731285;82;25674;-56
2023/07/26 10:06:04;;;;;;;75.85;71.50;;;;;;;22.41;44.48;99217.61;1731475;82;25538;-57
2023/07/26 10:08:32;;;;;;;76.65;72.15;;;;;;;22.33;44.79;99223.83;1731555;82;27205;-53
2023/07/26 10:11:02;;;;;;;75.65;71.55;;;;;;;22.28;45.08;99228.42;1731449;82;25486;-56
2023/07/26 10:13:32;;;;;;;;;;;;;;;22.22;45.60;99239.10;1734031;82;25538;-70
2023/07/26 10:16:02;;;;;;;78.95;73.92;;;;;;;22.18;45.69;99236.97;1731407;82;25786;-70
2023/07/26 10:18:33;;;;;;;79.42;75.12;;;;;;;22.07;46.01;99234.37;1731483;82;25355;-70
2023/07/26 10:21:03;;;;;;;75.87;71.65;;;;;;;22.00;46.35;99222.08;1731361;81;27193;-70
2023/07/26 10:23:32;;;;;;;77.67;73.28;;;;;;;21.93;46.46;99220.19;1731363;82;25309;-69
2023/07/26 10:26:07;;;;;;;79.27;74.32;;;;;;;21.88;46.84;99230.28;1731580;82;25339;-70
2023/07/26 10:28:38;;;;;;;75.75;71.42;;;;;;;21.84;47.05;99228.15;1731476;82;26272;-70
2023/07/26 10:31:05;;;;;;;81.78;74.77;;;;;;;21.78;46.99;99229.81;1731557;82;25347;-70
2023/07/26 10:33:33;;;;;;;20.75;8.25;;;;;;;21.72;46.85;99230.06;1706397;82;27070;-70
2023/07/26 10:36:07;;;;;;;14.63;5.03;;;;;;;21.66;46.98;99238.57;1731615;82;25537;-70
2023/07/26 10:38:42;;;;;;;9.60;3.90;;;;;;;21.57;46.83;99237.11;1731419;82;25418;-68
2023/07/26 10:41:27;;;;;;;10.35;4.37;;;;;;;21.53;46.63;99234.97;1705344;82;25760;-68
2023/07/26 10:44:07;;;;;;;11.93;4.55;;;;;;;21.47;46.65;99242.70;1731651;82;25533;-70
2023/07/26 10:47:03;;;;;;;11.25;2.45;;;;;;;21.41;46.42;99243.12;1706440;82;27166;-69
2023/07/26 10:49:34;;;;;;;11.45;3.92;;;;;;;21.36;46.33;99239.44;1731615;82;25795;-68
2023/07/26 10:52:05;;;;;;;14.20;10.55;;;;;;;21.33;46.23;99236.72;1720912;82;25497;-68
2023/07/26 10:54:41;;;;;;;29.02;22.67;;;;;;;21.31;46.16;99233.61;1731551;82;25635;-68
2023/07/26 10:57:30;;;;;;;28.02;13.43;;;;;;;21.27;45.35;99231.66;1731610;82;25507;-69
2023/07/26 11:00:16;;;;;;;9.13;2.55;;;;;;;21.20;44.74;99226.23;1706250;82;32984;-68
2023/07/26 11:02:48;;;;;;;6.85;2.10;;;;;;;21.17;44.28;99222.92;1730840;82;25319;-67
2023/07/26 11:05:23;;;;;;;27.52;4.70;;;;;;;21.13;44.18;99213.94;1706766;82;25554;-66
2023/07/26 11:08:08;;;;;;;7.95;2.37;;;;;;;21.11;44.16;99219.03;1731387;82;25853;-66
2023/07/26 11:10:52;;;;;;;10.88;2.55;;;;;;;21.11;44.07;99216.89;1731465;82;25533;-67
2023/07/26 11:13:33;;;;;;;29.60;4.00;;;;;;;21.08;43.88;99216.52;1731567;82;27322;-68
2023/07/26 11:16:05;;;;;;;6.75;1.98;;;;;;;21.07;43.62;99226.55;1731858;82;25360;-73
2023/07/26 11:18:41;;;;;;;19.75;4.30;;;;;;;21.05;43.66;99217.33;1731930;82;25117;-70
2023/07/26 11:21:16;;;;;;;13.03;3.72;;;;;;;21.06;43.58;99226.35;1734238;81;25757;-67
2023/07/26 11:23:43;;;;;;;24.50;6.25;;;;;;;21.04;43.52;99230.10;1736946;82;25380;-66
2023/07/26 11:26:11;;;;;;;30.30;6.05;;;;;;;21.01;43.41;99235.83;1736863;82;27206;-66
2023/07/26 11:28:38;;;;;;;86.97;15.68;;;;;;;20.99;43.44;99240.94;1736844;81;25508;-66